»·PEaware :: SWA611 KLAX-KSFO

SWA611 :: KLAX-KSFO

FLIGHT INFORMATION

Flight Status: Arrived
Operator:
Southwest Airlines
More flights by this operator :: More flights under this callsign
Pilot: Maximilliano F. (23467)
Aircraft: BOEING 737-800
(B738)
More flights by this aircraft type
Origin: KLAX Los Angeles Intl
United States
Destination: KSFO San Francisco Intl
United States
More flights between these airports :: More routes between these airports
Route: SUMMR1 STOKD SERFR SERFR3
File this flight plan on PilotEdge
Remarks: RMK / SIMBRIEF
Altitude:
(Current/Filed)
36,000ft
Speed:
(Current/Filed)
458kts
Departed: 21-Oct-19 02:55 PM
Arrived: 21-Oct-19 03:48 PM
Distance/Time
Traveled:
293nm/0:53
Distance/Time
To Go:
Arrived

Flight Plot

Page will automatically refresh every two minutes.

Flight plan parsing failed; only flown route is shown


Map Options




Map Legend


Flown Route
Filed Route
Departure Airport
Arrival Airport
Navaid (VOR, NDB)
Fix

Horizontal Profiles

Position Reports

Time Latitude Longitude Heading Altitude Ground
Speed
21-Oct-19 14:28 33.945804 -118.402227 118 123ft 0kts
21-Oct-19 14:30 33.945804 -118.402227 118 122ft 0kts
21-Oct-19 14:30 33.945804 -118.402227 118 122ft 0kts
21-Oct-19 14:31 33.945804 -118.402227 118 122ft 0kts
21-Oct-19 14:33 33.945804 -118.402227 118 122ft 0kts
21-Oct-19 14:33 33.945804 -118.402227 118 122ft 0kts
21-Oct-19 14:34 33.945804 -118.402227 118 122ft 0kts
21-Oct-19 14:35 33.945804 -118.402227 118 122ft 0kts
21-Oct-19 14:36 33.945804 -118.402227 118 122ft 0kts
21-Oct-19 14:37 33.945804 -118.402227 118 122ft 0kts
21-Oct-19 14:38 33.945804 -118.402227 118 123ft 0kts
21-Oct-19 14:39 33.945804 -118.402227 118 123ft 0kts
21-Oct-19 14:40 33.945804 -118.402227 118 123ft 0kts
21-Oct-19 14:41 33.945804 -118.402227 118 123ft 0kts
21-Oct-19 14:42 33.945804 -118.402227 118 123ft 0kts
21-Oct-19 14:43 33.945932 -118.402809 89 123ft 2kts
21-Oct-19 14:44 33.945903 -118.403098 77 123ft 0kts
21-Oct-19 14:45 33.945903 -118.403098 77 123ft 0kts
21-Oct-19 14:46 33.946083 -118.402848 15 123ft 4kts
21-Oct-19 14:47 33.946772 -118.402801 14 123ft 1kts
21-Oct-19 14:48 33.947591 -118.402600 351 122ft 0kts
21-Oct-19 14:49 33.947912 -118.402660 351 122ft 8kts
21-Oct-19 14:50 33.949249 -118.400087 83 119ft 20kts
21-Oct-19 14:51 33.949465 -118.399263 42 117ft 0kts
21-Oct-19 14:52 33.949469 -118.399259 42 117ft 0kts
21-Oct-19 14:53 33.950316 -118.400431 262 118ft 9kts
21-Oct-19 14:54 33.945350 -118.438399 254 1081ft 173kts
21-Oct-19 14:55 33.941343 -118.511378 266 3132ft 259kts
21-Oct-19 14:56 33.934938 -118.602652 264 4989ft 278kts
21-Oct-19 14:57 33.927684 -118.695359 265 8339ft 290kts
21-Oct-19 14:58 33.919929 -118.795517 267 11338ft 325kts
21-Oct-19 14:59 33.919174 -118.907557 274 14641ft 344kts
21-Oct-19 15:00 33.932273 -119.023256 303 18044ft 357kts
21-Oct-19 15:01 34.002425 -119.108815 318 21268ft 369kts
21-Oct-19 15:02 34.078850 -119.194855 317 24258ft 384kts
21-Oct-19 15:03 34.157880 -119.284074 317 26924ft 400kts
21-Oct-19 15:04 34.240669 -119.377795 316 29406ft 415kts
21-Oct-19 15:05 34.325992 -119.474665 316 31777ft 426kts
21-Oct-19 15:06 34.411826 -119.572403 317 34360ft 423kts
21-Oct-19 15:07 34.496394 -119.668979 316 36065ft 429kts
21-Oct-19 15:08 34.583136 -119.768393 316 36072ft 423kts
21-Oct-19 15:09 34.668692 -119.866737 316 36073ft 426kts
21-Oct-19 15:10 34.754675 -119.965858 316 36082ft 425kts
21-Oct-19 15:11 34.840328 -120.064889 316 36110ft 427kts
21-Oct-19 15:12 34.926249 -120.164524 316 36098ft 427kts
21-Oct-19 15:13 35.011970 -120.264226 316 36071ft 427kts
21-Oct-19 15:14 35.097817 -120.364373 316 36070ft 427kts
21-Oct-19 15:15 35.183806 -120.464993 316 36073ft 427kts
21-Oct-19 15:16 35.269392 -120.565452 316 36073ft 427kts
21-Oct-19 15:17 35.354385 -120.665538 316 36073ft 428kts
21-Oct-19 15:18 35.440087 -120.766837 316 36101ft 427kts
21-Oct-19 15:19 35.529850 -120.861957 323 36136ft 428kts
21-Oct-19 15:20 35.624910 -120.949353 322 36136ft 428kts
21-Oct-19 15:21 35.719835 -121.037708 322 36132ft 429kts
21-Oct-19 15:22 35.814371 -121.125951 322 36124ft 429kts
21-Oct-19 15:23 35.909511 -121.215032 322 36133ft 428kts
21-Oct-19 15:24 36.004211 -121.303973 322 36159ft 427kts
21-Oct-19 15:25 36.099902 -121.389540 327 36163ft 427kts
21-Oct-19 15:26 36.201514 -121.468485 327 34508ft 445kts
21-Oct-19 15:27 36.304522 -121.549061 327 31425ft 434kts
21-Oct-19 15:28 36.404332 -121.627378 328 28516ft 417kts
21-Oct-19 15:29 36.498674 -121.701670 328 26048ft 390kts
21-Oct-19 15:30 36.587824 -121.772293 329 23574ft 371kts
21-Oct-19 15:31 36.672458 -121.839325 329 21150ft 353kts
21-Oct-19 15:32 36.755617 -121.896132 343 19217ft 336kts
21-Oct-19 15:33 36.848119 -121.923998 348 17600ft 337kts
21-Oct-19 15:34 36.938167 -121.949117 347 15132ft 322kts
21-Oct-19 15:35 37.021217 -121.980071 343 12966ft 304kts
21-Oct-19 15:36 37.099810 -122.010757 344 11085ft 284kts
21-Oct-19 15:37 37.169297 -122.037933 344 10265ft 248kts
21-Oct-19 15:38 37.237260 -122.064520 344 8999ft 265kts
21-Oct-19 15:39 37.306479 -122.091775 344 7497ft 252kts
21-Oct-19 15:40 37.371849 -122.117540 344 6101ft 238kts
21-Oct-19 15:41 37.437251 -122.140119 346 4372ft 245kts
21-Oct-19 15:42 37.499524 -122.161536 346 3480ft 211kts
21-Oct-19 15:43 37.544481 -122.198814 306 2855ft 194kts
21-Oct-19 15:44 37.567334 -122.253051 300 1913ft 166kts
21-Oct-19 15:45 37.587877 -122.301750 297 1052ft 142kts
21-Oct-19 15:46 37.606559 -122.346193 297 268ft 144kts
21-Oct-19 15:47 37.618483 -122.374530 297 19ft 36kts
21-Oct-19 15:48 37.617206 -122.379494 190 33ft 12kts
21-Oct-19 15:49 37.613482 -122.381718 208 34ft 20kts
21-Oct-19 15:50 37.610968 -122.385522 296 34ft 11kts
21-Oct-19 15:51 37.612163 -122.388816 297 32ft 6kts

Navigation Log

Ident Type
Flight plan parsing failed, navigation log unavailable